METAR Data
IDs: Format: Raw Decoded Include TAF

Data at: 0216 UTC 19 Oct 2021

KADF 190156Z AUTO 00000KT 10SM CLR 09/08 A3012 RMK AO2 SLP201 T00940078
KADF 190056Z AUTO 00000KT 10SM CLR 12/08 A3011 RMK AO2 SLP197 T01220083
KADF 182356Z AUTO 00000KT 10SM CLR 16/08 A3010 RMK AO2 SLP193 T01560078 10244 20156 55006
KADF 182256Z AUTO 17006KT 10SM CLR 21/07 A3010 RMK AO2 SLP191 T02110067
KADF 182156Z AUTO VRB03KT 10SM CLR 23/06 A3010 RMK AO2 SLP193 T02330056
KADF 182056Z AUTO VRB03KT 10SM CLR 23/05 A3012 RMK AO2 SLP198 T02330050 56027
KADF 181956Z AUTO VRB05KT 10SM CLR 24/05 A3014 RMK AO2 SLP205 T02390050
KADF 181856Z AUTO VRB04KT 10SM CLR 23/05 A3017 RMK AO2 SLP214 T02280050
KADF 181756Z AUTO VRB03KT 10SM CLR 22/04 A3020 RMK AO2 SLP225 T02220044 10228 20039 58019
KADF 181656Z AUTO VRB05KT 10SM CLR 21/05 A3023 RMK AO2 SLP235 T02110050
KADF 181556Z AUTO 00000KT 10SM CLR 18/08 A3025 RMK AO2 SLP243 T01780078
KADF 181456Z AUTO 00000KT 10SM CLR 13/09 A3026 RMK AO2 SLP246 T01280089 51013
KADF 181356Z AUTO 00000KT 10SM CLR 09/07 A3025 RMK AO2 SLP244 T00890072
KADF 181256Z AUTO 00000KT 10SM CLR 05/04 A3023 RMK AO2 SLP237 T00500039
KADF 181156Z AUTO 00000KT 10SM CLR 04/04 A3022 RMK AO2 SLP233 7//// T00390039 10061 20039 51006
KADF 181056Z AUTO 00000KT 10SM CLR 05/04 A3022 RMK AO2 SLP232 T00500044
KADF 180956Z AUTO 00000KT 10SM CLR 04/04 A3021 RMK AO2 SLP227 T00440039
KADF 180856Z AUTO 00000KT 10SM CLR 05/04 A3020 RMK AO2 SLP226 T00500044 56006
KADF 180756Z AUTO 00000KT 10SM CLR 05/04 A3021 RMK AO2 SLP227 T00500044
KADF 180740Z AUTO 00000KT 5SM BR CLR 06/04 A3021 RMK AO2
KADF 180732Z AUTO 00000KT 1 3/4SM BR CLR 06/04 A3021 RMK AO2 VIS 1/2V5
KADF 180656Z AUTO 00000KT 10SM CLR 06/04 A3021 RMK AO2 SLP229 T00560044
KADF 180556Z AUTO 00000KT 10SM CLR 06/05 A3022 RMK AO2 SLP232 T00560050 10156 20056 402500017 58005
KADF 180456Z AUTO 00000KT 10SM CLR 06/06 A3023 RMK AO2 SLP234 T00610056
KADF 180356Z AUTO 00000KT 10SM CLR 07/06 A3024 RMK AO2 SLP238 T00720056
KADF 180256Z AUTO 00000KT 10SM CLR 08/06 A3024 RMK AO2 SLP238 T00780061 53008
KADF 180156Z AUTO 00000KT 10SM CLR 09/07 A3023 RMK AO2 SLP235 T00940067
KADF 180056Z AUTO 00000KT 10SM CLR 11/07 A3022 RMK AO2 SLP232 T01110072
KADF 172356Z AUTO 00000KT 10SM CLR 14/08 A3021 RMK AO2 SLP230 T01390078 10250 20139 55004
KADF 172256Z AUTO 00000KT 10SM CLR 21/05 A3021 RMK AO2 SLP229 T02060050
KADF 172156Z AUTO VRB03KT 10SM CLR 23/02 A3021 RMK AO2 SLP228 T02330022
KADF 172056Z AUTO VRB04KT 10SM CLR 24/02 A3022 RMK AO2 SLP233 T02440017 56030
KADF 171956Z AUTO VRB03KT 10SM CLR 23/02 A3025 RMK AO2 SLP241 T02330017
KADF 171856Z AUTO 01005KT 10SM CLR 23/02 A3027 RMK AO2 SLP249 T02280017
KADF 171756Z AUTO 07003KT 10SM CLR 22/01 A3031 RMK AO2 SLP263 6//// T02220011 10222 20017 58014
KADF 171656Z AUTO 00000KT 10SM CLR 21/03 A3034 RMK AO2 SLP273 T02060028
KADF 171556Z AUTO 13003KT 10SM CLR 19/05 A3035 RMK AO2 SLP277 T01890050
KADF 171456Z AUTO 00000KT 10SM CLR 13/08 A3035 RMK AO2 SLP278 T01330083 53008